This is the latest recevied weather packets stored in our database for station/object PY2KO-3. If no packets are shown the sender has not sent any weather packets the latest 10 day(s).
| Time | Temp. | Humidity | Pressure | Rain* | Wind** | Luminosity | Snow |
|---|---|---|---|---|---|---|---|
| 1777472357 | 27.22° C | 64% | 1016.6 hPa | - | - | - | - |
| 1777471451 | 27.78° C | 62% | 1016.8 hPa | - | - | - | - |
| 1777470551 | 27.22° C | 65% | 1017.1 hPa | - | - | - | - |
| 1777469651 | 26.11° C | 68% | 1017.7 hPa | - | - | - | - |
| 1777468751 | 27.22° C | 68% | 1017.6 hPa | - | - | - | - |
| 1777467851 | 27.22° C | 67% | 1017.7 hPa | - | - | - | - |
| 1777466951 | 26.11° C | 72% | 1018.1 hPa | - | - | - | - |
| 1777466059 | 25° C | 74% | 1018.5 hPa | - | - | - | - |
| 1777464268 | 24.44° C | 79% | 1018.4 hPa | - | - | - | - |
| 1777463354 | 23.89° C | 80% | 1018.4 hPa | - | - | - | - |
| 1777462451 | 23.33° C | 82% | 1018.6 hPa | - | - | - | - |
| 1777461548 | 22.78° C | 85% | 1018.8 hPa | - | - | - | - |
| 1777460654 | 22.22° C | 87% | 1018.8 hPa | - | - | - | - |
| 1777459753 | 22.22° C | 89% | 1018.6 hPa | - | - | - | - |
| 1777458851 | 21.67° C | 90% | 1018.8 hPa | - | - | - | - |
| 1777457951 | 21.67° C | 92% | 1018.8 hPa | - | - | - | - |
| 1777457054 | 21.67° C | 91% | 1018.6 hPa | - | - | - | - |
| 1777456153 | 21.67° C | 92% | 1018.5 hPa | - | - | - | - |
| 1777455251 | 21.11° C | 93% | 1018.3 hPa | - | - | - | - |
| 1777454359 | 21.11° C | 93% | 1018.1 hPa | - | - | - | - |
| 1777453451 | 21.11° C | 93% | 1018.1 hPa | - | - | - | - |
| 1777452551 | 21.11° C | 93% | 1017.8 hPa | - | - | - | - |
| 1777451654 | 21.11° C | 93% | 1017.6 hPa | - | - | - | - |
| 1777450752 | 21.11° C | 93% | 1017.5 hPa | - | - | - | - |
| 1777449851 | 21.11° C | 93% | 1017.4 hPa | - | - | - | - |
* Rain since midnight (hover to see other rain measurements)
** Current wind speed in m/s (hover to see current wind gust speed)